Time;durP1;ratioP1;P1;durP2;ratioP2;P2;SDS_P1;SDS_P2;PMS_P1;PMS_P2;Temp;Humidity;BMP_temperature;BMP_pressure;BME280_temperature;BME280_humidity;BME280_pressure;Samples;Min_cycle;Max_cycle;Signal;HPM_P1;HPM_P2
2023/07/09 00:01:14;;;;;;;5.70;3.28;;;;;;;;;;5073134;28;20671;-41
2023/07/09 00:03:42;;;;;;;5.13;3.00;;;;;;;;;;5074307;28;20195;-42
2023/07/09 00:06:09;;;;;;;3.67;2.83;;;;;;;;;;5073559;28;20230;-42
2023/07/09 00:08:39;;;;;;;4.05;3.20;;;;;;;;;;5074288;28;20219;-41
2023/07/09 00:11:06;;;;;;;3.97;3.03;;;;;;;;;;5074261;28;20207;-42
2023/07/09 00:13:33;;;;;;;3.25;2.70;;;;;;;;;;5073870;28;20207;-43
2023/07/09 00:16:04;;;;;;;9.85;3.10;;;;;;;;;;5073780;28;20199;-42
2023/07/09 00:18:31;;;;;;;4.00;3.00;;;;;;;;;;5073230;28;20286;-42
2023/07/09 00:20:59;;;;;;;5.93;3.28;;;;;;;;;;5073841;28;20214;-43
2023/07/09 00:23:27;;;;;;;3.38;2.58;;;;;;;;;;5073781;28;20218;-42
2023/07/09 00:25:54;;;;;;;4.43;3.28;;;;;;;;;;5072921;28;20231;-42
2023/07/09 00:28:21;;;;;;;6.00;3.20;;;;;;;;;;5073875;28;20272;-43
2023/07/09 00:30:49;;;;;;;6.18;3.33;;;;;;;;;;5073538;28;20207;-42
2023/07/09 00:33:20;;;;;;;5.40;3.72;;;;;;;;;;5073759;28;20200;-42
2023/07/09 00:35:50;;;;;;;4.25;3.20;;;;;;;;;;5072698;28;20199;-42
2023/07/09 00:38:24;;;;;;;3.72;3.15;;;;;;;;;;5074069;28;20219;-45
2023/07/09 00:41:05;;;;;;;5.00;2.97;;;;;;;;;;5073652;28;20198;-43
2023/07/09 00:43:37;;;;;;;7.60;3.60;;;;;;;;;;5106388;28;20191;-42
2023/07/09 00:46:14;;;;;;;5.85;3.22;;;;;;;;;;5071747;28;20668;-42
2023/07/09 00:48:42;;;;;;;4.35;3.20;;;;;;;;;;5073454;28;20211;-42
2023/07/09 00:51:13;;;;;;;5.32;3.10;;;;;;;;;;5072399;28;20214;-42
2023/07/09 00:53:45;;;;;;;3.78;2.83;;;;;;;;;;5072295;28;20687;-42
2023/07/09 00:56:16;;;;;;;4.95;2.83;;;;;;;;;;5073379;28;20208;-42
2023/07/09 00:58:47;;;;;;;6.97;3.58;;;;;;;;;;5073478;28;20210;-42
2023/07/09 01:01:18;;;;;;;5.80;2.70;;;;;;;;;;5072691;28;20649;-44
2023/07/09 01:03:47;;;;;;;3.92;2.90;;;;;;;;;;5073540;28;20207;-42
2023/07/09 01:06:17;;;;;;;4.15;2.80;;;;;;;;;;5055700;28;20203;-43
2023/07/09 01:08:45;;;;;;;8.50;3.05;;;;;;;;;;5072326;28;20268;-42
2023/07/09 01:11:20;;;;;;;5.32;3.50;;;;;;;;;;5105818;28;20203;-42
2023/07/09 01:13:53;;;;;;;4.63;2.95;;;;;;;;;;5072433;28;20199;-42
2023/07/09 01:16:24;;;;;;;5.00;3.50;;;;;;;;;;5073431;28;20199;-42
2023/07/09 01:18:51;;;;;;;5.53;3.30;;;;;;;;;;5073296;28;20241;-41
2023/07/09 01:21:19;;;;;;;11.25;3.40;;;;;;;;;;5105725;28;20230;-42
2023/07/09 01:23:49;;;;;;;3.13;2.80;;;;;;;;;;5073148;28;20206;-42
2023/07/09 01:26:18;;;;;;;4.97;3.22;;;;;;;;;;5073040;28;20593;-42
2023/07/09 01:28:47;;;;;;;8.68;2.90;;;;;;;;;;5071866;28;20687;-42
2023/07/09 01:31:15;;;;;;;3.60;3.17;;;;;;;;;;5073075;28;20561;-41
2023/07/09 01:33:44;;;;;;;4.65;3.13;;;;;;;;;;5073026;28;20223;-42
2023/07/09 01:36:18;;;;;;;8.55;3.40;;;;;;;;;;5072906;28;20200;-42
2023/07/09 01:38:45;;;;;;;4.45;3.25;;;;;;;;;;5074617;28;20293;-43
2023/07/09 01:41:13;;;;;;;3.60;2.80;;;;;;;;;;5109804;28;20195;-43
2023/07/09 01:43:42;;;;;;;2.95;2.65;;;;;;;;;;5075553;28;20721;-44
2023/07/09 01:46:12;;;;;;;3.97;2.92;;;;;;;;;;5074693;28;20215;-43
2023/07/09 01:48:42;;;;;;;3.97;3.00;;;;;;;;;;5075308;28;20230;-43
2023/07/09 01:51:16;;;;;;;7.15;3.33;;;;;;;;;;5076892;28;20252;-42
2023/07/09 01:53:44;;;;;;;3.67;3.00;;;;;;;;;;5074869;28;20199;-43
2023/07/09 01:56:11;;;;;;;6.18;3.40;;;;;;;;;;5076293;28;20652;-42
2023/07/09 01:58:41;;;;;;;5.88;3.17;;;;;;;;;;5109218;28;20253;-43
2023/07/09 02:01:11;;;;;;;4.63;3.45;;;;;;;;;;5108781;28;20199;-44
2023/07/09 02:03:38;;;;;;;4.43;3.13;;;;;;;;;;5076604;28;20199;-42
2023/07/09 02:06:09;;;;;;;4.18;3.47;;;;;;;;;;5076398;28;20207;-42
2023/07/09 02:08:37;;;;;;;6.95;3.50;;;;;;;;;;5076444;28;20227;-43
2023/07/09 02:11:04;;;;;;;3.75;3.15;;;;;;;;;;5076222;28;20203;-42
2023/07/09 02:13:31;;;;;;;5.38;3.63;;;;;;;;;;5076243;28;20261;-43
2023/07/09 02:15:59;;;;;;;7.10;3.63;;;;;;;;;;5075900;28;20191;-43
2023/07/09 02:18:28;;;;;;;5.38;4.00;;;;;;;;;;5075745;28;20203;-42
2023/07/09 02:20:55;;;;;;;6.07;3.92;;;;;;;;;;5108594;28;20672;-42
2023/07/09 02:23:26;;;;;;;6.38;3.38;;;;;;;;;;5074904;28;20213;-42
2023/07/09 02:25:54;;;;;;;6.40;3.35;;;;;;;;;;5073836;28;20231;-42
2023/07/09 02:28:21;;;;;;;4.70;3.63;;;;;;;;;;5075728;28;20219;-42
2023/07/09 02:30:48;;;;;;;4.18;3.47;;;;;;;;;;5075996;28;20207;-43
2023/07/09 02:33:15;;;;;;;8.00;3.92;;;;;;;;;;5075871;28;20214;-42
2023/07/09 02:35:43;;;;;;;7.35;3.65;;;;;;;;;;5075709;28;20199;-42
2023/07/09 02:38:10;;;;;;;5.55;4.22;;;;;;;;;;5074350;28;20253;-42
2023/07/09 02:40:39;;;;;;;5.20;3.70;;;;;;;;;;5081327;28;20202;-42
2023/07/09 02:43:06;;;;;;;5.32;3.45;;;;;;;;;;5096023;28;20211;-42
2023/07/09 02:45:33;;;;;;;8.35;3.80;;;;;;;;;;5094963;28;20203;-42
2023/07/09 02:48:00;;;;;;;5.55;4.10;;;;;;;;;;5094016;28;20287;-43
2023/07/09 02:50:33;;;;;;;7.00;3.85;;;;;;;;;;5095044;28;20563;-42
2023/07/09 02:53:00;;;;;;;7.05;4.03;;;;;;;;;;5096020;28;20230;-43
2023/07/09 02:55:29;;;;;;;10.57;5.25;;;;;;;;;;5095728;28;20187;-43
2023/07/09 02:57:56;;;;;;;7.82;4.30;;;;;;;;;;5094483;28;20670;-42
2023/07/09 03:00:23;;;;;;;7.22;5.00;;;;;;;;;;5094759;28;20210;-42
2023/07/09 03:02:51;;;;;;;8.05;4.65;;;;;;;;;;5094654;28;20206;-42
2023/07/09 03:05:18;;;;;;;7.95;5.45;;;;;;;;;;5093055;28;20557;-43
2023/07/09 03:07:45;;;;;;;6.90;4.22;;;;;;;;;;5095343;28;20199;-42
2023/07/09 03:10:13;;;;;;;7.43;4.63;;;;;;;;;;5091985;28;20210;-42
2023/07/09 03:12:40;;;;;;;9.23;5.50;;;;;;;;;;5094080;28;20241;-43
2023/07/09 03:15:07;;;;;;;10.20;6.13;;;;;;;;;;5095808;28;20235;-42
2023/07/09 03:17:34;;;;;;;9.15;5.65;;;;;;;;;;5095332;28;20198;-42
2023/07/09 03:20:02;;;;;;;9.75;5.53;;;;;;;;;;5094413;28;20206;-42
2023/07/09 03:22:29;;;;;;;6.63;4.68;;;;;;;;;;5094938;28;20195;-42
2023/07/09 03:24:56;;;;;;;8.57;4.55;;;;;;;;;;5095260;28;20613;-41
2023/07/09 03:27:23;;;;;;;9.05;3.80;;;;;;;;;;5094582;28;20654;-46
2023/07/09 03:29:50;;;;;;;5.35;3.90;;;;;;;;;;5093916;28;20271;-42
2023/07/09 03:32:18;;;;;;;7.25;4.95;;;;;;;;;;5095203;28;20202;-43
2023/07/09 03:34:45;;;;;;;6.93;5.03;;;;;;;;;;5095066;28;20217;-42
2023/07/09 03:37:12;;;;;;;7.22;5.05;;;;;;;;;;5093721;28;20205;-42
2023/07/09 03:39:39;;;;;;;8.48;5.25;;;;;;;;;;5094794;28;20651;-41
2023/07/09 03:42:06;;;;;;;8.82;5.50;;;;;;;;;;5094959;28;20226;-41
2023/07/09 03:44:34;;;;;;;9.00;5.72;;;;;;;;;;5094916;28;20207;-41
2023/07/09 03:47:01;;;;;;;10.13;7.05;;;;;;;;;;5094895;28;20642;-40
2023/07/09 03:49:28;;;;;;;16.17;6.55;;;;;;;;;;5094657;28;20284;-43
2023/07/09 03:51:56;;;;;;;11.45;7.50;;;;;;;;;;5094504;28;20198;-43
2023/07/09 03:54:23;;;;;;;8.57;6.45;;;;;;;;;;5095027;28;20206;-41
2023/07/09 03:56:53;;;;;;;10.65;7.50;;;;;;;;;;5094597;28;20297;-42
2023/07/09 03:59:20;;;;;;;17.30;7.10;;;;;;;;;;5094620;28;20207;-42
2023/07/09 04:01:48;;;;;;;9.60;6.47;;;;;;;;;;5092940;28;20199;-44
2023/07/09 04:04:20;;;;;;;13.93;7.45;;;;;;;;;;5094554;28;20205;-42
2023/07/09 04:06:47;;;;;;;10.70;7.22;;;;;;;;;;5093636;28;20202;-42
2023/07/09 04:09:14;;;;;;;15.32;7.43;;;;;;;;;;5094003;28;20215;-42
2023/07/09 04:11:41;;;;;;;12.57;7.20;;;;;;;;;;5094029;28;20293;-41
2023/07/09 04:14:09;;;;;;;10.75;6.63;;;;;;;;;;5094318;28;20660;-43
2023/07/09 04:16:36;;;;;;;14.93;7.45;;;;;;;;;;5093865;28;20279;-43
2023/07/09 04:19:03;;;;;;;9.48;6.90;;;;;;;;;;5094307;28;20210;-42
2023/07/09 04:21:30;;;;;;;8.73;6.55;;;;;;;;;;5088840;28;20290;-42
2023/07/09 04:23:58;;;;;;;12.20;6.85;;;;;;;;;;5091462;28;20678;-43
2023/07/09 04:26:25;;;;;;;10.02;6.50;;;;;;;;;;5092745;28;20235;-41
2023/07/09 04:28:52;;;;;;;12.10;6.38;;;;;;;;;;5093641;28;20222;-43
2023/07/09 04:31:19;;;;;;;9.90;6.80;;;;;;;;;;5089590;28;20222;-42
2023/07/09 04:33:47;;;;;;;11.90;7.32;;;;;;;;;;5092207;28;20207;-41
2023/07/09 04:36:14;;;;;;;9.18;7.07;;;;;;;;;;5087465;28;20289;-42
2023/07/09 04:38:41;;;;;;;10.52;7.60;;;;;;;;;;5086015;28;20570;-43
2023/07/09 04:41:08;;;;;;;9.07;6.68;;;;;;;;;;5087021;28;20200;-42
2023/07/09 04:43:35;;;;;;;9.77;6.63;;;;;;;;;;5091328;28;20663;-43
2023/07/09 04:46:02;;;;;;;10.50;6.72;;;;;;;;;;5088159;28;20201;-42
2023/07/09 04:48:30;;;;;;;9.88;7.03;;;;;;;;;;5087481;28;20200;-41
2023/07/09 04:50:59;;;;;;;12.20;7.35;;;;;;;;;;5094030;28;20210;-42
2023/07/09 04:53:27;;;;;;;9.02;6.72;;;;;;;;;;5084149;28;20210;-43
2023/07/09 04:55:55;;;;;;;11.13;6.35;;;;;;;;;;5082478;28;20198;-41
2023/07/09 04:58:23;;;;;;;9.25;6.35;;;;;;;;;;5082638;28;20203;-41
2023/07/09 05:00:50;;;;;;;10.48;6.70;;;;;;;;;;5072878;28;20207;-41
2023/07/09 05:03:19;;;;;;;9.43;6.35;;;;;;;;;;5073446;28;20195;-41
2023/07/09 05:05:47;;;;;;;9.60;6.32;;;;;;;;;;5073702;28;20207;-42
2023/07/09 05:08:14;;;;;;;9.43;6.07;;;;;;;;;;5073593;28;20202;-39
2023/07/09 05:10:43;;;;;;;6.82;5.55;;;;;;;;;;5071522;28;20231;-42
2023/07/09 05:13:11;;;;;;;8.05;5.82;;;;;;;;;;5072833;28;20199;-41
2023/07/09 05:15:43;;;;;;;7.22;4.80;;;;;;;;;;5072841;28;20195;-44
2023/07/09 05:18:12;;;;;;;7.97;5.00;;;;;;;;;;5082937;28;20231;-42
2023/07/09 05:20:40;;;;;;;7.07;4.80;;;;;;;;;;5093400;28;20217;-41
2023/07/09 05:23:08;;;;;;;6.40;5.10;;;;;;;;;;5091686;28;20208;-43
2023/07/09 05:25:36;;;;;;;6.97;4.65;;;;;;;;;;5079630;28;20238;-42
2023/07/09 05:28:04;;;;;;;6.82;4.63;;;;;;;;;;5082205;28;20215;-42
2023/07/09 05:30:32;;;;;;;7.00;4.80;;;;;;;;;;5077434;28;20684;-41
2023/07/09 05:32:59;;;;;;;5.72;4.07;;;;;;;;;;5080531;28;20229;-42
2023/07/09 05:35:27;;;;;;;5.15;4.07;;;;;;;;;;5090328;28;20585;-40
2023/07/09 05:37:54;;;;;;;5.25;3.83;;;;;;;;;;5083712;28;20259;-41
2023/07/09 05:40:22;;;;;;;5.68;3.63;;;;;;;;;;5087016;28;20231;-42
2023/07/09 05:42:49;;;;;;;4.78;3.40;;;;;;;;;;5091317;28;20608;-42
2023/07/09 05:45:16;;;;;;;4.72;3.40;;;;;;;;;;5087646;28;20691;-40
2023/07/09 05:47:44;;;;;;;6.72;3.38;;;;;;;;;;5089644;28;20230;-41
2023/07/09 05:50:11;;;;;;;3.53;2.90;;;;;;;;;;5083889;28;20295;-42
2023/07/09 05:52:38;;;;;;;6.20;3.50;;;;;;;;;;5077283;28;20241;-41
2023/07/09 05:55:06;;;;;;;4.88;3.22;;;;;;;;;;5072197;28;20246;-41
2023/07/09 05:57:33;;;;;;;4.70;3.30;;;;;;;;;;5072428;28;20231;-41
2023/07/09 06:00:00;;;;;;;4.35;2.85;;;;;;;;;;5077336;28;20219;-38
2023/07/09 06:02:39;;;;;;;5.90;2.92;;;;;;;;;;5085952;28;20244;-37
2023/07/09 06:05:10;;;;;;;3.97;2.85;;;;;;;;;;5092258;28;20226;-38
2023/07/09 06:07:38;;;;;;;3.75;2.58;;;;;;;;;;5092035;28;20215;-38
2023/07/09 06:10:07;;;;;;;3.75;2.60;;;;;;;;;;5092152;28;20261;-40
2023/07/09 06:12:35;;;;;;;3.42;2.80;;;;;;;;;;5091874;28;20223;-39
2023/07/09 06:15:03;;;;;;;5.47;2.78;;;;;;;;;;5092486;28;20218;-38
2023/07/09 06:17:30;;;;;;;3.22;2.75;;;;;;;;;;5092178;28;20223;-38
2023/07/09 06:19:57;;;;;;;4.70;2.63;;;;;;;;;;5092245;28;20248;-40
2023/07/09 06:22:26;;;;;;;4.13;2.55;;;;;;;;;;5091375;28;20618;-38
2023/07/09 06:24:54;;;;;;;5.90;2.60;;;;;;;;;;5093647;28;20579;-38
2023/07/09 06:27:21;;;;;;;4.05;2.25;;;;;;;;;;5095797;28;20307;-38
2023/07/09 06:29:48;;;;;;;3.92;2.22;;;;;;;;;;5094138;28;20234;-40
2023/07/09 06:32:15;;;;;;;4.15;2.30;;;;;;;;;;5095409;28;20643;-38
2023/07/09 06:34:42;;;;;;;4.32;2.60;;;;;;;;;;5094776;28;20814;-38
2023/07/09 06:37:10;;;;;;;2.97;2.00;;;;;;;;;;5094945;28;20554;-38
2023/07/09 06:39:37;;;;;;;3.10;2.25;;;;;;;;;;5094570;28;20219;-38
2023/07/09 06:42:04;;;;;;;4.30;1.90;;;;;;;;;;5095540;28;20222;-38
2023/07/09 06:44:52;;;;;;;3.88;2.50;;;;;;;;;;5091092;28;20303;-38
2023/07/09 06:47:20;;;;;;;3.67;2.47;;;;;;;;;;5095309;28;20243;-38
2023/07/09 06:49:47;;;;;;;3.10;1.67;;;;;;;;;;5095390;28;20234;-38
2023/07/09 06:52:14;;;;;;;4.22;2.42;;;;;;;;;;5095305;28;20585;-38
2023/07/09 06:54:41;;;;;;;3.17;2.05;;;;;;;;;;5094784;28;20318;-38
2023/07/09 06:57:08;;;;;;;4.05;2.28;;;;;;;;;;5094454;28;20235;-38
2023/07/09 06:59:35;;;;;;;7.85;2.03;;;;;;;;;;5095237;28;20222;-41
2023/07/09 07:02:03;;;;;;;2.60;1.88;;;;;;;;;;5094955;28;20601;-38
2023/07/09 07:04:30;;;;;;;2.80;2.05;;;;;;;;;;5095195;28;20699;-39
2023/07/09 07:06:57;;;;;;;3.75;2.42;;;;;;;;;;5095368;28;20216;-39
2023/07/09 07:09:24;;;;;;;2.35;1.85;;;;;;;;;;5094851;28;20231;-38
2023/07/09 07:11:52;;;;;;;2.75;1.75;;;;;;;;;;5094791;28;20230;-38
2023/07/09 07:14:18;;;;;;;3.08;2.10;;;;;;;;;;5094911;28;20223;-38
2023/07/09 07:16:46;;;;;;;3.92;2.08;;;;;;;;;;5094668;28;20223;-38
2023/07/09 07:19:13;;;;;;;1.98;1.63;;;;;;;;;;5093673;28;20241;-39
2023/07/09 07:21:40;;;;;;;2.75;2.00;;;;;;;;;;5094474;28;20219;-37
2023/07/09 07:24:07;;;;;;;2.50;1.92;;;;;;;;;;5093082;28;20227;-38
2023/07/09 07:26:34;;;;;;;2.42;1.80;;;;;;;;;;5087453;28;20227;-40
2023/07/09 07:29:02;;;;;;;2.63;1.77;;;;;;;;;;5074271;28;20268;-39
2023/07/09 07:31:30;;;;;;;2.00;1.60;;;;;;;;;;5097715;28;20702;-39
2023/07/09 07:33:57;;;;;;;2.58;1.80;;;;;;;;;;5092438;28;20227;-39
2023/07/09 07:36:24;;;;;;;3.55;2.15;;;;;;;;;;5090648;28;20773;-40
2023/07/09 07:38:57;;;;;;;2.38;1.75;;;;;;;;;;5093528;28;20309;-38
2023/07/09 07:41:25;;;;;;;3.17;1.65;;;;;;;;;;5090404;28;20230;-40
2023/07/09 07:43:52;;;;;;;4.95;2.00;;;;;;;;;;5093647;28;20306;-39
2023/07/09 07:46:19;;;;;;;3.67;1.83;;;;;;;;;;5094116;28;20221;-39
2023/07/09 07:48:47;;;;;;;2.83;1.90;;;;;;;;;;5093844;28;20219;-39
2023/07/09 07:51:14;;;;;;;2.83;1.70;;;;;;;;;;5094156;28;20239;-38
2023/07/09 07:53:41;;;;;;;2.58;1.70;;;;;;;;;;5093505;28;20219;-39
2023/07/09 07:56:08;;;;;;;2.22;1.60;;;;;;;;;;5089563;28;20695;-38
2023/07/09 07:58:35;;;;;;;4.50;1.83;;;;;;;;;;5093271;28;20234;-39
2023/07/09 08:01:03;;;;;;;3.33;1.80;;;;;;;;;;5093956;28;20288;-39
2023/07/09 08:03:30;;;;;;;2.00;1.48;;;;;;;;;;5093794;28;20223;-39
2023/07/09 08:05:58;;;;;;;2.70;1.80;;;;;;;;;;5093811;28;20226;-39
2023/07/09 08:08:28;;;;;;;2.35;1.60;;;;;;;;;;5112342;28;20695;-44
2023/07/09 08:11:07;;;;;;;2.70;1.52;;;;;;;;;;5101853;28;20226;-39
2023/07/09 08:13:36;;;;;;;4.30;1.30;;;;;;;;;;5091454;28;20233;-39
2023/07/09 08:16:05;;;;;;;2.28;1.48;;;;;;;;;;5090093;28;20218;-40
2023/07/09 08:18:32;;;;;;;3.22;1.80;;;;;;;;;;5093239;28;20216;-39
2023/07/09 08:21:00;;;;;;;2.72;1.70;;;;;;;;;;5093578;28;20227;-39
2023/07/09 08:23:27;;;;;;;4.00;2.03;;;;;;;;;;5093881;28;20297;-37
2023/07/09 08:25:59;;;;;;;2.38;1.48;;;;;;;;;;5075050;28;20214;-40
2023/07/09 08:28:27;;;;;;;2.90;1.42;;;;;;;;;;5092459;28;20187;-39
2023/07/09 08:30:54;;;;;;;2.80;1.77;;;;;;;;;;5092083;28;20219;-39
2023/07/09 08:33:22;;;;;;;3.90;1.40;;;;;;;;;;5090331;28;20198;-40
2023/07/09 08:35:51;;;;;;;2.40;1.60;;;;;;;;;;5091791;28;20205;-40
2023/07/09 08:38:18;;;;;;;2.28;1.48;;;;;;;;;;5093860;28;20194;-40
2023/07/09 08:41:00;;;;;;;2.47;1.30;;;;;;;;;;5093527;28;20198;-40
2023/07/09 08:43:39;;;;;;;2.35;1.42;;;;;;;;;;5094193;28;20198;-42
2023/07/09 08:46:09;;;;;;;1.98;1.48;;;;;;;;;;5093285;28;20202;-41
2023/07/09 08:48:39;;;;;;;2.78;1.40;;;;;;;;;;5094399;28;20566;-41
2023/07/09 08:51:19;;;;;;;3.28;1.40;;;;;;;;;;5092446;28;20256;-41
2023/07/09 08:53:52;;;;;;;2.05;1.50;;;;;;;;;;5090629;28;20187;-40
2023/07/09 08:56:21;;;;;;;2.30;1.27;;;;;;;;;;5081985;28;20226;-41
2023/07/09 08:58:50;;;;;;;2.25;1.42;;;;;;;;;;5090145;28;20242;-40
2023/07/09 09:01:20;;;;;;;3.95;1.48;;;;;;;;;;5079867;28;20227;-40
2023/07/09 09:03:50;;;;;;;1.17;1.00;;;;;;;;;;5081647;28;20215;-40
2023/07/09 09:06:22;;;;;;;2.92;1.38;;;;;;;;;;5090703;28;20226;-39
2023/07/09 09:09:02;;;;;;;1.98;1.42;;;;;;;;;;5075574;28;20272;-39
2023/07/09 09:11:39;;;;;;;2.28;1.80;;;;;;;;;;5085590;28;20242;-39
2023/07/09 09:14:16;;;;;;;3.35;1.73;;;;;;;;;;5082181;28;20230;-39
2023/07/09 09:16:44;;;;;;;1.83;1.42;;;;;;;;;;5072561;28;20226;-39
2023/07/09 09:19:30;;;;;;;2.83;1.40;;;;;;;;;;5072493;28;20254;-40
2023/07/09 09:22:03;;;;;;;2.38;1.50;;;;;;;;;;5072403;28;20219;-39
2023/07/09 09:24:37;;;;;;;1.88;1.20;;;;;;;;;;5084685;28;20222;-39
2023/07/09 09:27:04;;;;;;;2.97;1.35;;;;;;;;;;5110136;27;20718;-39
2023/07/09 09:29:31;;;;;;;2.30;1.33;;;;;;;;;;5089004;28;20214;-40
2023/07/09 09:32:00;;;;;;;1.52;1.20;;;;;;;;;;5074661;28;20211;-41
2023/07/09 09:34:29;;;;;;;3.03;1.55;;;;;;;;;;5085772;28;20743;-40
2023/07/09 09:36:58;;;;;;;1.77;1.30;;;;;;;;;;5091275;28;20256;-41
2023/07/09 09:39:26;;;;;;;2.30;1.38;;;;;;;;;;5085927;28;20226;-39
2023/07/09 09:41:56;;;;;;;1.98;1.30;;;;;;;;;;5082318;28;20203;-39
2023/07/09 09:44:28;;;;;;;1.27;1.10;;;;;;;;;;5087032;28;20206;-39
2023/07/09 09:46:58;;;;;;;1.65;1.30;;;;;;;;;;5093259;28;20194;-39
2023/07/09 09:49:27;;;;;;;3.50;1.10;;;;;;;;;;5092522;28;20187;-40
2023/07/09 09:51:57;;;;;;;2.90;1.27;;;;;;;;;;5092264;28;20226;-41
2023/07/09 09:54:27;;;;;;;1.42;1.02;;;;;;;;;;5093042;28;20619;-40
2023/07/09 09:56:55;;;;;;;1.48;1.10;;;;;;;;;;5093166;28;20191;-39
2023/07/09 09:59:32;;;;;;;1.60;1.17;;;;;;;;;;5095137;28;20616;-39
2023/07/09 10:02:02;;;;;;;1.52;1.15;;;;;;;;;;5097339;28;20195;-39
2023/07/09 10:04:30;;;;;;;4.13;1.20;;;;;;;;;;5096928;28;20226;-39
2023/07/09 10:07:03;;;;;;;1.77;1.38;;;;;;;;;;5097124;28;20202;-38
2023/07/09 10:09:55;;;;;;;1.95;1.20;;;;;;;;;;5096167;28;20182;-38
2023/07/09 10:12:22;;;;;;;1.15;1.00;;;;;;;;;;5096906;28;20734;-39
2023/07/09 10:14:56;;;;;;;2.90;1.30;;;;;;;;;;5096812;28;20240;-39
2023/07/09 10:17:38;;;;;;;1.88;1.00;;;;;;;;;;5095591;28;20539;-39
2023/07/09 10:20:15;;;;;;;1.42;1.17;;;;;;;;;;5096889;28;20202;-39
2023/07/09 10:23:08;;;;;;;1.88;1.20;;;;;;;;;;5096715;28;20199;-39
2023/07/09 10:25:46;;;;;;;1.67;1.05;;;;;;;;;;5076141;28;20235;-39
2023/07/09 10:28:36;;;;;;;1.55;1.08;;;;;;;;;;5076255;28;20227;-39
2023/07/09 10:31:12;;;;;;;2.00;1.20;;;;;;;;;;5091576;28;20741;-39
2023/07/09 10:33:54;;;;;;;2.65;0.95;;;;;;;;;;5091990;28;20240;-40
2023/07/09 10:36:33;;;;;;;1.70;1.00;;;;;;;;;;5076382;28;20575;-39
2023/07/09 10:39:06;;;;;;;1.73;1.10;;;;;;;;;;5091562;28;20663;-39
2023/07/09 10:41:35;;;;;;;1.42;1.20;;;;;;;;;;5076303;28;20210;-39
2023/07/09 10:44:05;;;;;;;1.58;1.10;;;;;;;;;;5074681;28;20203;-39
2023/07/09 10:46:35;;;;;;;1.10;0.70;;;;;;;;;;5076674;28;20207;-39
2023/07/09 10:49:06;;;;;;;1.83;1.02;;;;;;;;;;5108423;28;20248;-39
2023/07/09 10:51:43;;;;;;;2.05;1.25;;;;;;;;;;5075014;28;20211;-39
2023/07/09 10:54:15;;;;;;;1.30;0.90;;;;;;;;;;5074615;28;20187;-39
2023/07/09 10:56:47;;;;;;;2.03;0.85;;;;;;;;;;5075709;28;20576;-39
2023/07/09 10:59:26;;;;;;;1.10;0.88;;;;;;;;;;5058243;28;20192;-39
2023/07/09 11:02:32;;;;;;;1.67;0.98;;;;;;;;;;5074838;28;20203;-40
2023/07/09 11:05:00;;;;;;;1.08;0.80;;;;;;;;;;5107667;28;20247;-42
2023/07/09 11:07:50;;;;;;;1.70;1.10;;;;;;;;;;5087181;28;20191;-39
2023/07/09 11:10:37;;;;;;;1.73;0.90;;;;;;;;;;5075427;28;20771;-40
2023/07/09 11:13:22;;;;;;;2.15;1.00;;;;;;;;;;5093481;28;20222;-39
2023/07/09 11:15:53;;;;;;;1.88;0.80;;;;;;;;;;5088995;28;20218;-41
2023/07/09 11:18:26;;;;;;;1.02;0.75;;;;;;;;;;5088027;28;20227;-39
2023/07/09 11:21:20;;;;;;;1.42;0.90;;;;;;;;;;5080413;28;20675;-39
2023/07/09 11:23:51;;;;;;;0.90;0.60;;;;;;;;;;5090113;28;20218;-39
2023/07/09 11:26:25;;;;;;;1.38;0.60;;;;;;;;;;5093154;28;20237;-39
2023/07/09 11:29:13;;;;;;;1.17;0.90;;;;;;;;;;5093512;28;20226;-39
2023/07/09 11:31:45;;;;;;;0.60;0.60;;;;;;;;;;5088902;28;20223;-40
2023/07/09 11:34:12;;;;;;;1.13;0.60;;;;;;;;;;5090220;28;20250;-40
2023/07/09 11:36:47;;;;;;;1.23;0.40;;;;;;;;;;5088077;28;20218;-39
2023/07/09 11:39:38;;;;;;;1.48;0.75;;;;;;;;;;5090556;28;20705;-39
2023/07/09 11:42:26;;;;;;;0.60;0.50;;;;;;;;;;5084884;28;20698;-39
2023/07/09 11:45:17;;;;;;;1.85;0.70;;;;;;;;;;5089286;28;20231;-40
2023/07/09 11:48:07;;;;;;;0.98;0.43;;;;;;;;;;5089366;28;20242;-41
2023/07/09 11:50:39;;;;;;;0.88;0.60;;;;;;;;;;5089899;28;20298;-40
2023/07/09 11:53:19;;;;;;;0.95;0.40;;;;;;;;;;5110150;27;20215;-42
2023/07/09 11:55:47;;;;;;;0.77;0.40;;;;;;;;;;5091378;28;20250;-41
2023/07/09 11:58:16;;;;;;;2.58;0.70;;;;;;;;;;5092016;28;20309;-41
2023/07/09 12:00:48;;;;;;;0.85;0.70;;;;;;;;;;5092423;28;20218;-40
2023/07/09 12:03:18;;;;;;;0.88;0.50;;;;;;;;;;5093301;28;20215;-40
2023/07/09 12:05:49;;;;;;;1.08;0.70;;;;;;;;;;5092462;28;20700;-41
2023/07/09 12:08:17;;;;;;;0.90;0.60;;;;;;;;;;5092507;28;20234;-40
2023/07/09 12:10:44;;;;;;;4.38;0.70;;;;;;;;;;5093794;28;20229;-39
2023/07/09 12:13:12;;;;;;;1.27;0.68;;;;;;;;;;5093671;28;20632;-38
2023/07/09 12:15:40;;;;;;;1.33;0.68;;;;;;;;;;5094102;28;20222;-39
2023/07/09 12:18:13;;;;;;;1.05;0.70;;;;;;;;;;5092745;28;20222;-45
2023/07/09 12:20:44;;;;;;;0.82;0.43;;;;;;;;;;5089955;28;20206;-41
2023/07/09 12:23:32;;;;;;;0.77;0.50;;;;;;;;;;5089447;28;20246;-41
2023/07/09 12:26:01;;;;;;;0.55;0.40;;;;;;;;;;5092333;28;20283;-39
2023/07/09 12:28:29;;;;;;;1.05;0.50;;;;;;;;;;5093961;28;20281;-42
2023/07/09 12:30:56;;;;;;;1.30;0.50;;;;;;;;;;5093861;28;20222;-41
2023/07/09 12:33:25;;;;;;;0.63;0.40;;;;;;;;;;5092510;28;20198;-41
2023/07/09 12:35:56;;;;;;;0.40;0.30;;;;;;;;;;5094015;28;20206;-41
2023/07/09 12:38:26;;;;;;;0.70;0.40;;;;;;;;;;5092978;28;20637;-41
2023/07/09 12:40:55;;;;;;;0.68;0.47;;;;;;;;;;5092704;28;20655;-41
2023/07/09 12:43:27;;;;;;;0.55;0.45;;;;;;;;;;5087291;28;20196;-40
2023/07/09 12:45:56;;;;;;;0.55;0.25;;;;;;;;;;5081398;28;20206;-40
2023/07/09 12:48:26;;;;;;;1.10;0.50;;;;;;;;;;5092934;28;20195;-39
2023/07/09 12:50:57;;;;;;;1.15;0.40;;;;;;;;;;5093162;28;20207;-41
2023/07/09 12:53:27;;;;;;;0.70;0.55;;;;;;;;;;5093850;28;20199;-41
2023/07/09 12:55:56;;;;;;;1.10;0.60;;;;;;;;;;5091950;28;20183;-42
2023/07/09 12:58:25;;;;;;;0.77;0.43;;;;;;;;;;5093599;28;20605;-41
2023/07/09 13:00:54;;;;;;;0.68;0.40;;;;;;;;;;5092401;28;20202;-40
2023/07/09 13:03:25;;;;;;;1.20;0.68;;;;;;;;;;5092331;28;20666;-40
2023/07/09 13:05:55;;;;;;;0.40;0.40;;;;;;;;;;5093906;28;20627;-40
2023/07/09 13:08:23;;;;;;;0.77;0.55;;;;;;;;;;5092008;28;20202;-40
2023/07/09 13:10:51;;;;;;;0.63;0.50;;;;;;;;;;5092131;28;20218;-38
2023/07/09 13:13:21;;;;;;;1.05;0.50;;;;;;;;;;5093769;28;20194;-38
2023/07/09 13:15:56;;;;;;;0.75;0.50;;;;;;;;;;5091198;28;20244;-38
2023/07/09 13:18:24;;;;;;;0.50;0.40;;;;;;;;;;5091726;28;20186;-39
2023/07/09 13:20:54;;;;;;;0.35;0.30;;;;;;;;;;5087733;28;20222;-40
2023/07/09 13:23:27;;;;;;;0.82;0.50;;;;;;;;;;5091310;28;20231;-39
2023/07/09 13:25:56;;;;;;;1.42;0.30;;;;;;;;;;5083826;28;20247;-39
2023/07/09 13:28:26;;;;;;;0.57;0.50;;;;;;;;;;5086965;28;20272;-40
2023/07/09 13:30:59;;;;;;;3.38;0.50;;;;;;;;;;5092287;27;20225;-40
2023/07/09 13:33:27;;;;;;;0.90;0.40;;;;;;;;;;5095296;28;20219;-37
2023/07/09 13:35:54;;;;;;;0.70;0.40;;;;;;;;;;5075178;28;20565;-38
2023/07/09 13:38:23;;;;;;;1.05;0.40;;;;;;;;;;5094275;28;20226;-38
2023/07/09 13:40:56;;;;;;;0.70;0.43;;;;;;;;;;5096574;28;20218;-38
2023/07/09 13:43:29;;;;;;;0.60;0.45;;;;;;;;;;5117017;27;20734;-38
2023/07/09 13:45:57;;;;;;;0.40;0.40;;;;;;;;;;5095640;28;20225;-38
2023/07/09 13:48:26;;;;;;;1.80;0.65;;;;;;;;;;5095683;28;20850;-39
2023/07/09 13:50:54;;;;;;;0.82;0.60;;;;;;;;;;5095627;28;20223;-39
2023/07/09 13:53:25;;;;;;;0.73;0.32;;;;;;;;;;5094515;28;20214;-39
2023/07/09 13:55:53;;;;;;;0.68;0.50;;;;;;;;;;5089736;28;20691;-39
2023/07/09 13:58:22;;;;;;;0.75;0.40;;;;;;;;;;5095838;28;20238;-40
2023/07/09 14:00:50;;;;;;;1.08;0.60;;;;;;;;;;5096028;28;20227;-40
2023/07/09 14:03:19;;;;;;;0.60;0.50;;;;;;;;;;5093927;28;20231;-38
2023/07/09 14:05:47;;;;;;;1.25;0.77;;;;;;;;;;5095433;28;20698;-38
2023/07/09 14:08:16;;;;;;;1.13;0.70;;;;;;;;;;5096293;28;20209;-39
2023/07/09 14:10:44;;;;;;;1.13;0.43;;;;;;;;;;5096189;28;20194;-38
2023/07/09 14:13:16;;;;;;;0.77;0.50;;;;;;;;;;5095286;28;20714;-38
2023/07/09 14:15:44;;;;;;;3.50;0.50;;;;;;;;;;5095117;28;20183;-44
2023/07/09 14:18:17;;;;;;;0.50;0.50;;;;;;;;;;5088428;28;20219;-38
2023/07/09 14:20:45;;;;;;;0.70;0.68;;;;;;;;;;5095383;28;20272;-39
2023/07/09 14:23:14;;;;;;;0.50;0.50;;;;;;;;;;5095052;28;20237;-38
2023/07/09 14:25:43;;;;;;;0.65;0.57;;;;;;;;;;5092593;28;20710;-40
2023/07/09 14:28:13;;;;;;;0.60;0.50;;;;;;;;;;5081183;28;20211;-40
2023/07/09 14:30:41;;;;;;;1.30;0.60;;;;;;;;;;5092433;28;20226;-40
2023/07/09 14:33:16;;;;;;;1.13;0.77;;;;;;;;;;5080527;28;20231;-39
2023/07/09 14:35:44;;;;;;;0.90;0.60;;;;;;;;;;5084931;28;20213;-40
2023/07/09 14:38:24;;;;;;;0.63;0.60;;;;;;;;;;5095733;28;20230;-39
2023/07/09 14:40:53;;;;;;;1.05;0.50;;;;;;;;;;5095411;28;20225;-40
2023/07/09 14:43:21;;;;;;;0.95;0.70;;;;;;;;;;5093907;28;20222;-39
2023/07/09 14:45:49;;;;;;;1.58;0.60;;;;;;;;;;5094621;28;20702;-40
2023/07/09 14:48:18;;;;;;;0.80;0.70;;;;;;;;;;5095182;28;20307;-39
2023/07/09 14:50:46;;;;;;;1.80;0.70;;;;;;;;;;5093784;28;20711;-40
2023/07/09 14:53:15;;;;;;;0.95;0.60;;;;;;;;;;5095462;28;20227;-40
2023/07/09 14:55:44;;;;;;;0.75;0.57;;;;;;;;;;5094960;28;20711;-42
2023/07/09 14:58:17;;;;;;;0.88;0.70;;;;;;;;;;5095561;28;20276;-40
2023/07/09 15:00:46;;;;;;;1.00;0.80;;;;;;;;;;5093132;28;20229;-40